Time;durP1;ratioP1;P1;durP2;ratioP2;P2;SDS_P1;SDS_P2;PMS_P1;PMS_P2;Temp;Humidity;BMP_temperature;BMP_pressure;BME280_temperature;BME280_humidity;BME280_pressure;Samples;Min_cycle;Max_cycle;Signal;HPM_P1;HPM_P2
2021/07/21 00:00:36;;;;;;;15.30;12.00;;;17.00;99.90;;;;;;4935439;29;20303;-45
2021/07/21 00:03:05;;;;;;;13.93;11.23;;;17.00;99.90;;;;;;4935478;29;20600;-46
2021/07/21 00:05:35;;;;;;;14.68;11.73;;;17.00;99.90;;;;;;4935103;29;20241;-47
2021/07/21 00:08:04;;;;;;;13.57;11.60;;;17.00;99.90;;;;;;4935069;29;20244;-47
2021/07/21 00:10:32;;;;;;;14.73;11.85;;;16.90;99.90;;;;;;4934950;29;20302;-48
2021/07/21 00:15:58;;;;;;;13.40;11.70;;;16.80;99.90;;;;;;4935294;29;20568;-47
2021/07/21 00:18:30;;;;;;;15.13;11.90;;;16.70;99.90;;;;;;4935273;29;20231;-49
2021/07/21 00:20:58;;;;;;;14.13;11.65;;;16.70;99.90;;;;;;4935374;29;20248;-46
2021/07/21 00:23:27;;;;;;;14.65;12.07;;;16.60;99.90;;;;;;4935314;29;20620;-47
2021/07/21 00:25:56;;;;;;;17.42;12.55;;;16.60;99.90;;;;;;4935311;29;20308;-47
2021/07/21 00:28:25;;;;;;;16.08;13.10;;;16.60;99.90;;;;;;4935001;29;20595;-46
2021/07/21 00:30:54;;;;;;;14.60;12.15;;;16.60;99.90;;;;;;4935077;29;20291;-47
2021/07/21 00:33:23;;;;;;;16.00;12.25;;;16.60;99.90;;;;;;4934920;29;20368;-48
2021/07/21 00:35:51;;;;;;;14.32;12.13;;;16.60;99.90;;;;;;4935186;29;20216;-51
2021/07/21 00:38:19;;;;;;;17.35;12.38;;;16.60;99.90;;;;;;4934975;29;20670;-47
2021/07/21 00:40:48;;;;;;;14.50;11.13;;;16.60;99.90;;;;;;4935088;29;20212;-46
2021/07/21 00:43:16;;;;;;;13.85;11.88;;;16.50;99.90;;;;;;4935002;29;20635;-48
2021/07/21 00:45:44;;;;;;;16.38;12.50;;;16.50;99.90;;;;;;4934828;29;20250;-48
2021/07/21 00:48:13;;;;;;;17.63;12.30;;;16.50;99.90;;;;;;4934973;29;20240;-49
2021/07/21 00:50:41;;;;;;;13.38;11.90;;;16.50;99.90;;;;;;4934809;29;20318;-48
2021/07/21 00:53:09;;;;;;;13.15;11.75;;;16.50;99.90;;;;;;4934926;29;20235;-46
2021/07/21 00:55:38;;;;;;;13.55;11.30;;;16.50;99.90;;;;;;4934883;29;20211;-46
2021/07/21 00:58:07;;;;;;;13.52;12.13;;;16.50;99.90;;;;;;4934703;29;20521;-47
2021/07/21 01:00:35;;;;;;;15.27;12.93;;;16.50;99.90;;;;;;4934948;29;20311;-49
2021/07/21 01:03:03;;;;;;;15.70;12.00;;;16.40;99.90;;;;;;4934739;29;20258;-49
2021/07/21 01:05:37;;;;;;;14.98;13.25;;;16.40;99.90;;;;;;4934621;29;20231;-46
2021/07/21 01:08:06;;;;;;;14.48;11.20;;;16.40;99.90;;;;;;4934478;29;20244;-48
2021/07/21 01:10:34;;;;;;;16.23;13.02;;;16.30;99.90;;;;;;4934384;29;20212;-47
2021/07/21 01:13:09;;;;;;;14.38;12.13;;;16.30;99.90;;;;;;4934578;29;20299;-47
2021/07/21 01:15:46;;;;;;;17.05;12.38;;;16.30;99.90;;;;;;4934695;29;20293;-47
2021/07/21 01:18:18;;;;;;;13.57;12.18;;;16.30;99.90;;;;;;4934574;29;20690;-48
2021/07/21 01:21:17;;;;;;;13.70;11.52;;;16.20;99.90;;;;;;4934585;29;20311;-47
2021/07/21 01:24:17;;;;;;;14.15;12.57;;;16.20;99.90;;;;;;4938660;29;20304;-48
2021/07/21 01:26:51;;;;;;;17.88;13.40;;;16.10;99.90;;;;;;4938427;29;20306;-48
2021/07/21 01:29:22;;;;;;;16.73;13.40;;;16.10;99.90;;;;;;4938222;29;20313;-49
2021/07/21 01:31:54;;;;;;;16.08;13.00;;;16.10;99.90;;;;;;4938214;29;20641;-49
2021/07/21 01:34:24;;;;;;;18.08;12.55;;;16.00;99.90;;;;;;4938216;29;20557;-52
2021/07/21 01:36:53;;;;;;;19.50;12.70;;;16.10;99.90;;;;;;4938094;29;20672;-51
2021/07/21 01:39:27;;;;;;;14.52;11.30;;;16.10;99.90;;;;;;4938032;29;20204;-50
2021/07/21 01:41:59;;;;;;;14.73;12.75;;;16.10;99.90;;;;;;4938137;29;20239;-47
2021/07/21 01:44:32;;;;;;;17.33;12.95;;;16.10;99.90;;;;;;4938236;29;20303;-50
2021/07/21 01:47:02;;;;;;;18.92;12.93;;;16.10;99.90;;;;;;4937921;29;20212;-52
2021/07/21 01:49:34;;;;;;;18.20;12.50;;;16.10;99.90;;;;;;4937816;29;20228;-49
2021/07/21 01:52:05;;;;;;;15.00;11.70;;;16.00;99.90;;;;;;4937804;29;20263;-50
2021/07/21 01:54:34;;;;;;;16.80;12.77;;;16.00;99.90;;;;;;4937841;29;20243;-48
2021/07/21 01:57:03;;;;;;;15.32;11.82;;;15.90;99.90;;;;;;4937962;29;20218;-51
2021/07/21 01:59:34;;;;;;;15.13;12.65;;;15.90;99.90;;;;;;4937868;29;20294;-51
2021/07/21 02:02:03;;;;;;;15.93;14.02;;;15.80;99.90;;;;;;4937635;29;20218;-51
2021/07/21 02:04:36;;;;;;;17.15;12.65;;;15.80;99.90;;;;;;4937757;29;20344;-49
2021/07/21 02:07:08;;;;;;;15.38;12.68;;;15.80;99.90;;;;;;4937407;29;20763;-47
2021/07/21 02:09:37;;;;;;;18.85;13.45;;;15.70;99.90;;;;;;4936779;29;20397;-47
2021/07/21 02:12:06;;;;;;;14.10;12.60;;;15.70;99.90;;;;;;4937605;29;20212;-50
2021/07/21 02:14:36;;;;;;;15.80;13.90;;;15.70;99.90;;;;;;4937616;29;20291;-48
2021/07/21 02:17:04;;;;;;;14.73;12.13;;;15.70;99.90;;;;;;4937618;29;20348;-49
2021/07/21 02:19:33;;;;;;;16.70;13.25;;;15.60;99.90;;;;;;4937323;29;20256;-47
2021/07/21 02:22:02;;;;;;;14.85;13.18;;;15.60;99.90;;;;;;4937206;29;20223;-47
2021/07/21 02:24:31;;;;;;;15.82;12.38;;;15.60;99.90;;;;;;4937318;29;20288;-46
2021/07/21 02:26:59;;;;;;;17.45;12.57;;;15.50;99.90;;;;;;4937497;29;20244;-45
2021/07/21 02:29:27;;;;;;;18.25;12.55;;;15.50;99.90;;;;;;4937142;29;20264;-47
2021/07/21 02:32:04;;;;;;;15.52;13.65;;;15.50;99.90;;;;;;4936824;29;20223;-45
2021/07/21 02:34:32;;;;;;;16.17;13.93;;;15.40;99.90;;;;;;4937239;29;20216;-46
2021/07/21 02:37:00;;;;;;;14.43;12.93;;;15.40;99.90;;;;;;4938119;29;20216;-48
2021/07/21 02:39:28;;;;;;;15.77;13.57;;;15.40;99.90;;;;;;4938707;29;20299;-49
2021/07/21 02:41:56;;;;;;;17.38;13.20;;;15.30;99.90;;;;;;4938311;29;20271;-49
2021/07/21 02:44:24;;;;;;;15.05;12.68;;;15.30;99.90;;;;;;4936924;29;20216;-47
2021/07/21 02:46:52;;;;;;;14.18;12.68;;;15.20;99.90;;;;;;4936799;29;20699;-51
2021/07/21 02:49:22;;;;;;;16.10;14.40;;;15.20;99.90;;;;;;4936836;29;20232;-48
2021/07/21 02:51:53;;;;;;;18.20;14.15;;;15.20;99.90;;;;;;4936943;29;20310;-46
2021/07/21 02:54:32;;;;;;;15.38;12.93;;;15.20;99.90;;;;;;4936863;29;20657;-47
2021/07/21 02:57:08;;;;;;;14.07;12.13;;;15.20;99.90;;;;;;4936660;29;20226;-49
2021/07/21 02:59:40;;;;;;;17.98;13.30;;;15.20;99.90;;;;;;4937500;29;20282;-50
2021/07/21 03:02:09;;;;;;;15.80;12.45;;;15.10;99.90;;;;;;4937866;29;20224;-46
2021/07/21 03:04:40;;;;;;;15.48;13.52;;;15.10;99.90;;;;;;4936372;29;20212;-48
2021/07/21 03:07:09;;;;;;;14.32;12.40;;;15.10;99.90;;;;;;4936123;29;20212;-46
2021/07/21 03:09:38;;;;;;;15.43;12.88;;;15.10;99.90;;;;;;4936430;29;20239;-46
2021/07/21 03:12:11;;;;;;;16.02;12.90;;;15.10;99.90;;;;;;4936736;29;20303;-48
2021/07/21 03:14:42;;;;;;;16.98;12.77;;;15.10;99.90;;;;;;4936578;29;20260;-50
2021/07/21 03:17:13;;;;;;;18.85;13.07;;;15.00;99.90;;;;;;4936520;29;20220;-50
2021/07/21 03:19:47;;;;;;;16.10;13.73;;;15.10;99.90;;;;;;4936377;29;20304;-50
2021/07/21 03:22:17;;;;;;;21.33;12.95;;;15.00;99.90;;;;;;4936302;29;20212;-47
2021/07/21 03:24:45;;;;;;;13.73;12.05;;;15.00;99.90;;;;;;4936472;29;20240;-46
2021/07/21 03:27:16;;;;;;;14.80;12.45;;;15.00;99.90;;;;;;4936188;29;20754;-47
2021/07/21 03:29:48;;;;;;;16.00;12.63;;;15.00;99.90;;;;;;4936145;29;20238;-45
2021/07/21 03:32:19;;;;;;;17.42;13.85;;;15.00;99.90;;;;;;4936024;29;20218;-46
2021/07/21 03:34:49;;;;;;;16.25;13.93;;;15.00;99.90;;;;;;4936032;29;20212;-46
2021/07/21 03:37:19;;;;;;;13.68;12.00;;;15.00;99.90;;;;;;4936074;29;20576;-48
2021/07/21 03:39:52;;;;;;;16.77;12.23;;;15.00;99.90;;;;;;4935865;29;20307;-48
2021/07/21 03:42:20;;;;;;;18.42;12.80;;;15.00;99.90;;;;;;4935836;29;20660;-48
2021/07/21 03:44:48;;;;;;;16.30;12.05;;;15.10;99.90;;;;;;4934923;29;20302;-47
2021/07/21 03:47:17;;;;;;;17.83;13.32;;;15.10;99.90;;;;;;4935574;29;20557;-47
2021/07/21 03:49:48;;;;;;;15.52;12.73;;;15.10;99.90;;;;;;4935673;29;20236;-49
2021/07/21 03:52:17;;;;;;;14.70;13.13;;;15.20;99.90;;;;;;4935542;29;20563;-50
2021/07/21 03:54:45;;;;;;;14.95;12.45;;;15.20;99.90;;;;;;4935720;29;20208;-46
2021/07/21 03:57:18;;;;;;;17.83;13.65;;;15.20;99.90;;;;;;4935489;29;20227;-47
2021/07/21 03:59:46;;;;;;;15.57;12.70;;;15.10;99.90;;;;;;4935763;29;20208;-47
2021/07/21 04:02:16;;;;;;;15.20;13.05;;;15.20;99.90;;;;;;4935625;29;20307;-47
2021/07/21 04:04:48;;;;;;;18.33;13.13;;;15.10;99.90;;;;;;4935326;29;20692;-50
2021/07/21 04:07:17;;;;;;;16.83;13.35;;;15.10;99.90;;;;;;4935123;29;20668;-48
2021/07/21 04:09:47;;;;;;;13.90;12.40;;;15.10;99.90;;;;;;4935207;29;20323;-51
2021/07/21 04:12:15;;;;;;;18.98;13.77;;;15.20;99.90;;;;;;4935476;29;20302;-47
2021/07/21 04:14:47;;;;;;;20.73;12.23;;;15.20;99.90;;;;;;4935415;29;20243;-47
2021/07/21 04:17:17;;;;;;;17.85;13.50;;;15.30;99.90;;;;;;4935491;29;20248;-48
2021/07/21 04:19:48;;;;;;;16.50;13.40;;;15.40;99.90;;;;;;4935004;29;20587;-46
2021/07/21 04:22:17;;;;;;;14.82;13.27;;;15.40;99.90;;;;;;4934921;29;20251;-49
2021/07/21 04:24:46;;;;;;;16.73;14.02;;;15.50;99.90;;;;;;4935101;29;20251;-48
2021/07/21 04:27:15;;;;;;;16.58;13.43;;;15.50;99.90;;;;;;4935193;29;20558;-49
2021/07/21 04:29:46;;;;;;;20.15;13.82;;;15.50;99.90;;;;;;4935062;29;20267;-49
2021/07/21 04:32:14;;;;;;;17.95;13.95;;;15.50;99.90;;;;;;4935103;29;20262;-47
2021/07/21 04:34:44;;;;;;;17.15;14.35;;;15.50;99.90;;;;;;4935034;29;20207;-48
2021/07/21 04:37:14;;;;;;;17.45;13.25;;;15.50;99.90;;;;;;4935069;29;20755;-48
2021/07/21 04:39:43;;;;;;;14.77;13.20;;;15.50;99.90;;;;;;4935100;29;20299;-48
2021/07/21 04:42:11;;;;;;;16.17;13.50;;;15.50;99.90;;;;;;4935090;29;20319;-53
2021/07/21 04:44:41;;;;;;;17.40;13.35;;;15.50;99.90;;;;;;4934890;29;20220;-50
2021/07/21 04:47:10;;;;;;;18.10;14.27;;;15.50;99.90;;;;;;4934963;29;20242;-48
2021/07/21 04:49:39;;;;;;;17.33;13.65;;;15.60;99.90;;;;;;4935367;29;20662;-49
2021/07/21 04:52:08;;;;;;;17.27;14.30;;;15.70;99.90;;;;;;4934930;29;20216;-51
2021/07/21 04:54:39;;;;;;;17.73;14.18;;;15.70;99.90;;;;;;4934842;29;20240;-51
2021/07/21 04:57:08;;;;;;;17.83;14.85;;;15.80;99.90;;;;;;4934890;29;20212;-48
2021/07/21 04:59:35;;;;;;;21.80;13.77;;;15.80;99.90;;;;;;4934813;29;20212;-51
2021/07/21 05:02:04;;;;;;;18.55;13.35;;;15.80;99.90;;;;;;4934737;29;20310;-46
2021/07/21 05:04:34;;;;;;;19.10;14.45;;;15.80;99.90;;;;;;4934961;29;20227;-49
2021/07/21 05:07:02;;;;;;;15.85;13.75;;;15.90;99.90;;;;;;4934705;29;20694;-48
2021/07/21 05:09:30;;;;;;;16.98;13.07;;;16.00;99.90;;;;;;4934812;29;20574;-52
2021/07/21 05:11:59;;;;;;;18.65;13.43;;;16.10;99.90;;;;;;4934717;29;20302;-48
2021/07/21 05:14:27;;;;;;;15.75;13.25;;;16.20;99.90;;;;;;4934591;29;20247;-48
2021/07/21 05:16:55;;;;;;;22.67;16.48;;;16.30;99.90;;;;;;4934783;29;20220;-51
2021/07/21 05:19:23;;;;;;;15.02;13.48;;;16.40;99.90;;;;;;4934794;29;20527;-47
2021/07/21 05:21:52;;;;;;;17.63;13.75;;;16.40;99.90;;;;;;4934659;29;20204;-47
2021/07/21 05:24:20;;;;;;;16.92;13.93;;;16.50;99.90;;;;;;4934649;29;20298;-49
2021/07/21 05:26:48;;;;;;;16.27;14.50;;;16.50;99.90;;;;;;4934427;29;20216;-49
2021/07/21 05:29:19;;;;;;;19.23;14.68;;;16.50;99.90;;;;;;4934819;29;20287;-47
2021/07/21 05:31:47;;;;;;;17.45;15.32;;;16.60;99.90;;;;;;4934472;29;20783;-49
2021/07/21 05:34:15;;;;;;;16.58;14.57;;;16.70;99.90;;;;;;4934319;29;20668;-47
2021/07/21 05:36:43;;;;;;;16.50;14.63;;;16.70;99.90;;;;;;4934543;29;20302;-49
2021/07/21 05:39:11;;;;;;;22.83;15.63;;;16.70;99.90;;;;;;4934515;29;20668;-48
2021/07/21 05:41:39;;;;;;;23.65;13.95;;;16.80;99.90;;;;;;4934317;29;20302;-47
2021/07/21 05:44:07;;;;;;;16.33;14.60;;;16.90;99.90;;;;;;4934209;29;20680;-52
2021/07/21 05:46:36;;;;;;;18.00;13.93;;;16.90;99.90;;;;;;4934261;29;20291;-52
2021/07/21 05:49:04;;;;;;;19.58;13.25;;;17.00;99.90;;;;;;4934309;29;20216;-51
2021/07/21 05:51:32;;;;;;;15.75;12.55;;;17.00;99.90;;;;;;4934118;29;20319;-50
2021/07/21 05:54:00;;;;;;;19.42;13.32;;;17.20;99.90;;;;;;4934212;29;20240;-52
2021/07/21 05:56:29;;;;;;;16.00;13.10;;;17.30;99.90;;;;;;4934334;29;20340;-48
2021/07/21 05:58:57;;;;;;;17.10;12.85;;;17.40;99.90;;;;;;4934142;29;20215;-48
2021/07/21 06:01:25;;;;;;;17.65;13.73;;;17.40;99.90;;;;;;4934447;29;20295;-48
2021/07/21 06:03:55;;;;;;;19.52;13.52;;;17.50;99.90;;;;;;4934252;29;20235;-48
2021/07/21 06:06:24;;;;;;;19.45;14.88;;;17.50;99.90;;;;;;4934644;29;20220;-49
2021/07/21 06:08:51;;;;;;;17.42;13.18;;;17.70;99.90;;;;;;4936933;29;20334;-48
2021/07/21 06:11:20;;;;;;;16.83;13.38;;;17.70;99.90;;;;;;4937568;29;20649;-51
2021/07/21 06:13:48;;;;;;;14.93;12.90;;;17.90;99.90;;;;;;4937785;29;20212;-48
2021/07/21 06:16:16;;;;;;;14.60;12.90;;;18.00;99.90;;;;;;4937666;29;20215;-50
2021/07/21 06:18:44;;;;;;;17.40;12.90;;;18.10;99.90;;;;;;4937599;29;20212;-50
2021/07/21 06:21:14;;;;;;;17.83;13.30;;;18.20;99.90;;;;;;4937537;29;20303;-49
2021/07/21 06:23:42;;;;;;;19.48;12.60;;;18.30;99.90;;;;;;4937587;29;20212;-46
2021/07/21 06:26:09;;;;;;;18.63;13.98;;;18.40;99.90;;;;;;4937408;29;20307;-46
2021/07/21 06:28:37;;;;;;;15.82;13.20;;;18.50;99.90;;;;;;4937449;29;20364;-48
2021/07/21 06:31:05;;;;;;;18.90;13.45;;;18.60;99.90;;;;;;4937471;29;20315;-47
2021/07/21 06:33:33;;;;;;;21.85;14.00;;;18.80;99.90;;;;;;4937350;29;20216;-48
2021/07/21 06:36:02;;;;;;;18.83;14.13;;;18.90;99.90;;;;;;4937537;29;20224;-46
2021/07/21 06:38:32;;;;;;;16.40;12.57;;;19.00;99.90;;;;;;4937429;29;20283;-49
2021/07/21 06:40:59;;;;;;;21.20;13.15;;;19.10;99.90;;;;;;4937284;29;20247;-52
2021/07/21 06:43:27;;;;;;;14.07;12.63;;;19.20;99.90;;;;;;4937049;29;20760;-48
2021/07/21 06:45:55;;;;;;;16.30;12.57;;;19.20;99.90;;;;;;4936883;29;20642;-49
2021/07/21 06:48:23;;;;;;;16.92;12.85;;;19.20;99.90;;;;;;4937422;29;20303;-49
2021/07/21 06:50:51;;;;;;;20.45;13.45;;;19.30;99.90;;;;;;4936869;29;20224;-54
2021/07/21 06:53:19;;;;;;;17.00;13.90;;;19.40;99.90;;;;;;4937004;29;20616;-52
2021/07/21 06:55:48;;;;;;;15.98;12.93;;;19.50;99.90;;;;;;4937016;29;20216;-53
2021/07/21 06:58:16;;;;;;;13.90;12.02;;;19.60;99.90;;;;;;4936876;29;20223;-52
2021/07/21 07:00:45;;;;;;;17.92;11.10;;;19.60;99.90;;;;;;4936969;29;20599;-53
2021/07/21 07:03:13;;;;;;;14.77;11.65;;;19.80;99.90;;;;;;4937104;29;20250;-51
2021/07/21 07:05:41;;;;;;;13.75;12.35;;;19.90;99.90;;;;;;4937002;29;20220;-50
2021/07/21 07:08:09;;;;;;;15.82;12.02;;;20.10;99.90;;;;;;4936707;29;20246;-50
2021/07/21 07:10:37;;;;;;;16.00;12.45;;;20.10;99.90;;;;;;4936582;29;20308;-50
2021/07/21 07:13:06;;;;;;;15.82;12.13;;;20.10;99.90;;;;;;4936666;29;20303;-51
2021/07/21 07:15:34;;;;;;;17.90;12.40;;;20.10;99.90;;;;;;4936721;29;20239;-47
2021/07/21 07:18:02;;;;;;;14.48;12.52;;;20.10;99.90;;;;;;4936614;29;20252;-51
2021/07/21 07:20:31;;;;;;;14.02;11.55;;;20.20;99.90;;;;;;4935649;29;20240;-51
2021/07/21 07:22:59;;;;;;;15.68;11.35;;;20.30;99.90;;;;;;4936314;29;20299;-49
2021/07/21 07:25:27;;;;;;;15.93;12.60;;;20.40;99.90;;;;;;4936353;29;20307;-52
2021/07/21 07:27:55;;;;;;;13.40;12.00;;;20.50;99.90;;;;;;4936312;29;20222;-53
2021/07/21 07:30:24;;;;;;;13.68;11.48;;;20.60;99.90;;;;;;4936212;29;20647;-52
2021/07/21 07:32:52;;;;;;;14.35;11.60;;;20.80;99.90;;;;;;4936274;29;20236;-51
2021/07/21 07:35:20;;;;;;;13.60;12.07;;;20.80;99.90;;;;;;4936066;29;20676;-48
2021/07/21 07:37:48;;;;;;;11.80;10.50;;;20.90;99.90;;;;;;4936320;29;20677;-50
2021/07/21 07:40:16;;;;;;;12.35;11.05;;;20.90;99.90;;;;;;4935797;29;20216;-51
2021/07/21 07:42:44;;;;;;;12.43;11.25;;;21.00;99.90;;;;;;4936550;29;20671;-50
2021/07/21 07:45:14;;;;;;;12.07;10.52;;;21.10;99.90;;;;;;4935994;29;20251;-49
2021/07/21 07:47:43;;;;;;;13.75;11.73;;;21.30;99.90;;;;;;4936508;29;20212;-52
2021/07/21 07:50:13;;;;;;;13.85;10.85;;;21.40;99.90;;;;;;4935969;29;20272;-51
2021/07/21 07:52:41;;;;;;;13.50;11.63;;;21.60;99.90;;;;;;4935732;29;20260;-51
2021/07/21 07:55:10;;;;;;;12.63;11.15;;;21.70;99.90;;;;;;4935763;29;20583;-47
2021/07/21 07:57:38;;;;;;;12.30;10.50;;;21.80;99.90;;;;;;4936289;29;20216;-49
2021/07/21 08:00:08;;;;;;;17.13;11.35;;;21.80;99.90;;;;;;4935671;29;20208;-59
2021/07/21 08:02:37;;;;;;;12.82;11.43;;;21.90;99.90;;;;;;4935634;29;20227;-59
2021/07/21 08:05:08;;;;;;;12.00;10.80;;;21.90;99.90;;;;;;4935441;29;20628;-57
2021/07/21 08:07:36;;;;;;;12.07;10.00;;;22.00;99.90;;;;;;4935602;29;20267;-56
2021/07/21 08:10:07;;;;;;;10.52;9.50;;;22.10;99.90;;;;;;4935499;29;20306;-55
2021/07/21 08:12:34;;;;;;;13.15;10.13;;;22.20;99.90;;;;;;4935482;29;20298;-58
2021/07/21 08:15:02;;;;;;;12.43;9.75;;;22.20;99.90;;;;;;4935481;29;20212;-58
2021/07/21 08:17:30;;;;;;;12.88;9.55;;;22.20;99.40;;;;;;4935453;29;20236;-59
2021/07/21 08:19:58;;;;;;;9.50;8.60;;;22.30;99.10;;;;;;4935234;29;20250;-52
2021/07/21 08:22:28;;;;;;;10.60;9.57;;;22.30;98.70;;;;;;4935424;29;20208;-51
2021/07/21 08:24:56;;;;;;;11.07;9.80;;;22.50;98.40;;;;;;4935191;29;20283;-50
2021/07/21 08:27:23;;;;;;;10.32;9.20;;;22.60;98.20;;;;;;4935234;29;20239;-52
2021/07/21 08:29:51;;;;;;;12.15;9.23;;;22.70;97.80;;;;;;4935146;29;20220;-54
2021/07/21 08:32:19;;;;;;;11.00;9.90;;;22.80;97.50;;;;;;4935420;29;20615;-54
2021/07/21 08:34:51;;;;;;;9.60;8.63;;;22.90;97.30;;;;;;4935674;29;20299;-51
2021/07/21 08:37:18;;;;;;;11.55;10.30;;;23.00;96.80;;;;;;4935247;29;20771;-48
2021/07/21 08:39:48;;;;;;;10.43;9.30;;;23.10;96.40;;;;;;4935219;29;20227;-51
2021/07/21 08:42:16;;;;;;;10.68;9.57;;;23.20;96.10;;;;;;4934686;29;20208;-53
2021/07/21 08:44:45;;;;;;;8.73;7.93;;;23.30;95.80;;;;;;4934742;29;20636;-53
2021/07/21 08:47:13;;;;;;;9.75;8.75;;;23.30;95.40;;;;;;4934922;29;20583;-52
2021/07/21 08:49:41;;;;;;;10.73;8.98;;;23.40;95.10;;;;;;4935134;29;20612;-50
2021/07/21 08:52:09;;;;;;;10.13;8.85;;;23.50;94.70;;;;;;4935063;29;20691;-51
2021/07/21 08:54:40;;;;;;;9.55;8.65;;;23.50;94.40;;;;;;4935055;29;20256;-47
2021/07/21 08:57:11;;;;;;;10.50;8.38;;;23.50;94.10;;;;;;4935140;29;20240;-51
2021/07/21 08:59:42;;;;;;;10.93;8.35;;;23.60;93.80;;;;;;4934772;29;20291;-52
2021/07/21 09:02:12;;;;;;;13.35;9.00;;;23.70;93.50;;;;;;4935161;29;20294;-53
2021/07/21 09:04:41;;;;;;;9.23;8.23;;;23.80;93.20;;;;;;4934945;29;20228;-51
2021/07/21 09:07:09;;;;;;;10.15;8.43;;;23.80;92.80;;;;;;4934836;29;20214;-51
2021/07/21 09:09:57;;;;;;;9.63;7.95;;;23.80;92.50;;;;;;4935002;29;20219;-48
2021/07/21 09:12:26;;;;;;;10.43;8.73;;;23.90;92.10;;;;;;4934867;29;20235;-50
2021/07/21 09:14:54;;;;;;;9.95;8.95;;;23.90;91.90;;;;;;4935117;29;20302;-48
2021/07/21 09:17:23;;;;;;;9.80;8.55;;;24.00;91.60;;;;;;4934907;29;20222;-51
2021/07/21 09:19:52;;;;;;;11.27;8.98;;;24.00;91.40;;;;;;4934697;29;20211;-53
2021/07/21 09:22:22;;;;;;;10.10;8.38;;;24.00;91.30;;;;;;4934700;29;20208;-53
2021/07/21 09:25:15;;;;;;;10.45;8.65;;;24.00;91.50;;;;;;4934717;29;20254;-56
2021/07/21 09:27:47;;;;;;;10.25;8.52;;;24.10;90.50;;;;;;4934776;29;20308;-49
2021/07/21 09:30:17;;;;;;;10.60;9.23;;;24.20;90.60;;;;;;4934681;29;20211;-54
2021/07/21 09:32:56;;;;;;;10.35;8.55;;;24.20;90.50;;;;;;4934403;29;20624;-49
2021/07/21 09:35:26;;;;;;;9.32;7.95;;;24.30;90.20;;;;;;4934667;29;20294;-51
2021/07/21 09:37:58;;;;;;;9.88;8.77;;;24.30;90.20;;;;;;4934584;29;20219;-48
2021/07/21 09:40:27;;;;;;;10.05;8.93;;;24.50;90.00;;;;;;4934583;29;20222;-49
2021/07/21 09:42:56;;;;;;;10.18;9.10;;;24.60;89.80;;;;;;4936265;29;20300;-52
2021/07/21 09:45:25;;;;;;;10.07;8.98;;;24.70;89.20;;;;;;4938196;29;20218;-51
2021/07/21 09:47:55;;;;;;;10.70;9.60;;;24.70;88.60;;;;;;4938301;29;20303;-54
2021/07/21 09:50:25;;;;;;;9.50;8.60;;;24.90;88.30;;;;;;4938136;29;20640;-49
2021/07/21 09:52:55;;;;;;;9.63;8.63;;;24.80;88.00;;;;;;4938169;29;20258;-52
2021/07/21 09:55:25;;;;;;;13.43;9.10;;;24.80;88.00;;;;;;4938301;29;20235;-53
2021/07/21 09:58:00;;;;;;;11.82;9.23;;;24.90;88.00;;;;;;4937967;29;20212;-50
2021/07/21 10:00:30;;;;;;;9.98;8.57;;;24.90;87.50;;;;;;4938200;29;20218;-49
2021/07/21 10:03:16;;;;;;;12.25;10.38;;;24.90;87.30;;;;;;4938072;29;20680;-51
2021/07/21 10:05:59;;;;;;;13.40;10.63;;;24.90;86.80;;;;;;4937765;29;20208;-49
2021/07/21 10:08:33;;;;;;;10.45;9.27;;;25.00;87.00;;;;;;4937539;29;20783;-50
2021/07/21 10:11:20;;;;;;;10.20;9.15;;;25.10;86.20;;;;;;4937790;29;20215;-49
2021/07/21 10:13:50;;;;;;;10.05;9.02;;;25.10;85.70;;;;;;4937843;29;20556;-48
2021/07/21 10:16:33;;;;;;;9.70;8.55;;;25.10;85.90;;;;;;4937697;29;20256;-49
2021/07/21 10:19:03;;;;;;;10.73;9.57;;;25.10;85.70;;;;;;4937701;29;20212;-52
2021/07/21 10:21:31;;;;;;;13.77;10.00;;;25.10;85.60;;;;;;4937390;29;20583;-49
2021/07/21 10:23:59;;;;;;;10.35;9.45;;;25.10;85.70;;;;;;4937280;29;20742;-50
2021/07/21 10:26:28;;;;;;;10.70;9.68;;;25.10;85.60;;;;;;4937385;29;20691;-50
2021/07/21 10:29:00;;;;;;;11.38;10.18;;;25.10;85.50;;;;;;4937182;29;20339;-49
2021/07/21 10:31:29;;;;;;;12.68;10.10;;;25.20;85.60;;;;;;4937348;29;20302;-51
2021/07/21 10:34:03;;;;;;;13.73;10.82;;;25.30;85.50;;;;;;4937792;29;20562;-49
2021/07/21 10:36:32;;;;;;;9.82;8.85;;;25.40;84.90;;;;;;4937509;29;20576;-48
2021/07/21 10:39:01;;;;;;;11.88;10.18;;;25.40;84.70;;;;;;4937408;29;20299;-47
2021/07/21 10:41:31;;;;;;;12.68;10.02;;;25.50;84.30;;;;;;4936769;29;20208;-50
2021/07/21 10:44:01;;;;;;;11.38;9.95;;;25.50;84.00;;;;;;4937652;29;20208;-50
2021/07/21 10:46:33;;;;;;;11.10;9.95;;;25.60;83.60;;;;;;4937348;29;20259;-50
2021/07/21 10:49:20;;;;;;;12.25;9.98;;;25.70;83.20;;;;;;4937399;29;20298;-53
2021/07/21 10:55:17;;;;;;;11.57;10.38;;;26.00;82.70;;;;;;4935848;29;20352;-51
2021/07/21 11:00:43;;;;;;;11.00;9.85;;;26.00;82.20;;;;;;4925107;29;20219;-52
2021/07/21 11:03:22;;;;;;;11.05;9.95;;;26.00;82.30;;;;;;4936401;29;20571;-49
2021/07/21 11:06:02;;;;;;;11.98;10.77;;;26.00;82.10;;;;;;4937460;29;20630;-49
2021/07/21 11:08:31;;;;;;;15.80;10.63;;;26.00;81.70;;;;;;4936760;29;20294;-47
2021/07/21 11:11:10;;;;;;;11.63;10.43;;;26.00;82.00;;;;;;4936880;29;20231;-51
2021/07/21 11:13:41;;;;;;;11.52;10.38;;;25.90;82.10;;;;;;4936847;29;20286;-51
2021/07/21 11:16:48;;;;;;;12.23;11.02;;;26.00;82.00;;;;;;4937035;29;20639;-51
2021/07/21 11:19:34;;;;;;;15.80;10.30;;;26.00;81.60;;;;;;4937008;29;20220;-49
2021/07/21 11:22:05;;;;;;;11.55;10.35;;;25.80;81.10;;;;;;4936946;29;20672;-49
2021/07/21 11:25:03;;;;;;;11.65;10.60;;;25.70;81.70;;;;;;4936940;29;20219;-50
2021/07/21 11:27:45;;;;;;;13.07;11.73;;;25.70;81.70;;;;;;4936642;29;20216;-49
2021/07/21 11:30:35;;;;;;;15.38;10.95;;;25.60;81.90;;;;;;4936289;29;20578;-46
2021/07/21 11:34:02;;;;;;;12.55;11.25;;;25.60;81.70;;;;;;4936548;29;20310;-50
2021/07/21 11:36:54;;;;;;;12.90;11.43;;;25.60;80.40;;;;;;4896169;29;20213;-52
2021/07/21 11:39:44;;;;;;;13.93;11.65;;;25.50;81.00;;;;;;4896015;29;20211;-51
2021/07/21 11:42:35;;;;;;;12.35;10.93;;;25.50;81.00;;;;;;4926952;29;20702;-52
2021/07/21 11:45:11;;;;;;;11.70;10.60;;;25.70;81.10;;;;;;4935895;29;20251;-50
2021/07/21 11:47:41;;;;;;;13.25;11.45;;;25.90;80.30;;;;;;4936089;29;20258;-49
2021/07/21 11:50:12;;;;;;;13.27;11.63;;;26.00;80.30;;;;;;4936032;29;20216;-51
2021/07/21 11:52:41;;;;;;;12.27;11.07;;;26.20;79.60;;;;;;4936175;29;20223;-51
2021/07/21 11:55:10;;;;;;;12.15;10.95;;;26.30;78.90;;;;;;4936018;29;20232;-47
2021/07/21 11:57:39;;;;;;;13.73;11.77;;;26.20;78.90;;;;;;4936493;29;20223;-48
2021/07/21 12:00:08;;;;;;;12.80;11.38;;;26.20;79.10;;;;;;4935929;29;20318;-48
2021/07/21 12:02:36;;;;;;;13.57;12.23;;;26.20;78.80;;;;;;4935821;29;20239;-47
2021/07/21 12:05:09;;;;;;;16.80;12.40;;;26.20;78.60;;;;;;4935191;29;20219;-49
2021/07/21 12:07:38;;;;;;;12.30;11.00;;;26.20;78.50;;;;;;4935803;29;20335;-53
2021/07/21 12:10:16;;;;;;;12.75;11.55;;;26.40;78.10;;;;;;4935778;29;20775;-50
2021/07/21 12:12:45;;;;;;;13.95;10.90;;;26.50;77.40;;;;;;4935957;29;20614;-47
2021/07/21 12:15:17;;;;;;;12.95;10.75;;;26.50;77.30;;;;;;4935556;29;20240;-47
2021/07/21 12:17:45;;;;;;;15.80;10.77;;;26.50;76.80;;;;;;4935594;29;20212;-54
2021/07/21 12:20:16;;;;;;;12.43;10.88;;;26.30;77.30;;;;;;4935576;29;20223;-52
2021/07/21 12:22:46;;;;;;;11.98;10.88;;;26.40;77.80;;;;;;4935680;29;20303;-52
2021/07/21 12:25:18;;;;;;;13.38;11.95;;;26.50;76.50;;;;;;4935402;29;20215;-49
2021/07/21 12:27:48;;;;;;;11.73;10.52;;;26.50;75.60;;;;;;4935295;29;20583;-55
2021/07/21 12:30:18;;;;;;;11.48;10.40;;;26.40;75.60;;;;;;4935426;29;20239;-51
2021/07/21 12:32:47;;;;;;;11.63;10.43;;;26.50;75.40;;;;;;4936347;29;20211;-54
2021/07/21 12:35:17;;;;;;;12.98;9.98;;;26.60;75.20;;;;;;4936317;29;20272;-52
2021/07/21 12:37:48;;;;;;;12.60;9.82;;;26.60;74.60;;;;;;4935201;29;20255;-53
2021/07/21 12:40:20;;;;;;;11.07;10.05;;;26.70;74.30;;;;;;4935209;29;20290;-50
2021/07/21 12:42:50;;;;;;;13.52;11.25;;;26.80;73.60;;;;;;4935169;29;20252;-51
2021/07/21 12:45:19;;;;;;;14.35;10.02;;;26.80;73.20;;;;;;4935066;29;20254;-52
2021/07/21 12:47:48;;;;;;;12.77;10.35;;;26.90;72.90;;;;;;4934912;29;20218;-51
2021/07/21 12:50:18;;;;;;;12.43;10.70;;;27.00;72.60;;;;;;4935174;29;20212;-53
2021/07/21 12:52:49;;;;;;;11.55;10.45;;;27.00;72.80;;;;;;4934878;29;20223;-52
2021/07/21 12:55:30;;;;;;;12.35;11.07;;;27.00;72.50;;;;;;4935129;29;20259;-51